Time;durP1;ratioP1;P1;durP2;ratioP2;P2;SDS_P1;SDS_P2;PMS_P1;PMS_P2;Temp;Humidity;BMP_temperature;BMP_pressure;BME280_temperature;BME280_humidity;BME280_pressure;Samples;Min_cycle;Max_cycle;Signal;HPM_P1;HPM_P2
2023/01/06 00:02:00;;;;;;;24.88;6.70;;;10.30;99.90;;;;;;5111675;28;20039;-77
2023/01/06 00:04:26;;;;;;;30.77;8.30;;;10.30;99.90;;;;;;5110924;28;20035;-78
2023/01/06 00:06:52;;;;;;;31.90;7.60;;;10.40;99.90;;;;;;5112322;28;20072;-78
2023/01/06 00:09:17;;;;;;;31.90;6.97;;;10.30;99.90;;;;;;5111500;28;20024;-77
2023/01/06 00:11:43;;;;;;;16.80;5.95;;;10.30;99.90;;;;;;5111263;28;20077;-77
2023/01/06 00:14:09;;;;;;;26.02;6.78;;;10.30;99.90;;;;;;5111160;28;20046;-77
2023/01/06 00:16:35;;;;;;;21.98;6.47;;;10.30;99.90;;;;;;5111261;28;20036;-77
2023/01/06 00:19:01;;;;;;;24.27;7.15;;;10.20;99.90;;;;;;5110070;28;20157;-78
2023/01/06 00:21:27;;;;;;;27.75;6.47;;;10.30;99.90;;;;;;5110965;28;20024;-76
2023/01/06 00:23:54;;;;;;;25.23;7.22;;;10.30;99.90;;;;;;5112776;28;20027;-77
2023/01/06 00:26:20;;;;;;;25.85;7.57;;;10.30;99.90;;;;;;5111016;28;20126;-77
2023/01/06 00:28:46;;;;;;;31.38;7.10;;;10.20;99.90;;;;;;5111177;28;20168;-78
2023/01/06 00:31:14;;;;;;;30.58;7.47;;;10.30;99.90;;;;;;5111174;28;20131;-77
2023/01/06 00:33:40;;;;;;;;;;;10.30;99.90;;;;;;5111784;28;20027;-78
2023/01/06 00:36:08;;;;;;;22.23;6.68;;;10.20;99.90;;;;;;5111894;28;20122;-77
2023/01/06 00:38:37;;;;;;;25.23;7.95;;;10.20;99.90;;;;;;5110322;28;20036;-78
2023/01/06 00:43:57;;;;;;;17.08;7.25;;;10.20;99.90;;;;;;5111317;28;20039;-77
2023/01/06 00:46:25;;;;;;;18.77;7.47;;;10.20;99.90;;;;;;5114738;28;20040;-77
2023/01/06 00:48:51;;;;;;;24.98;6.93;;;10.30;99.90;;;;;;5115416;28;20088;-78
2023/01/06 00:51:17;;;;;;;24.20;7.40;;;10.30;99.90;;;;;;5115835;28;20382;-78
2023/01/06 00:53:42;;;;;;;21.90;7.05;;;10.30;99.90;;;;;;5114179;28;20337;-78
2023/01/06 00:56:08;;;;;;;146.85;74.40;;;10.20;99.90;;;;;;5113984;28;20032;-77
2023/01/06 00:58:34;;;;;;;67.85;31.40;;;10.30;99.90;;;;;;5114931;28;20047;-77
2023/01/06 01:01:04;;;;;;;25.45;8.82;;;10.30;99.90;;;;;;5114174;28;20043;-77
2023/01/06 01:03:31;;;;;;;27.05;7.53;;;10.20;99.90;;;;;;5115012;28;20030;-78
2023/01/06 01:06:01;;;;;;;25.13;7.53;;;10.30;99.90;;;;;;5114126;28;20023;-77
2023/01/06 01:08:27;;;;;;;28.55;7.78;;;10.20;99.90;;;;;;5114651;27;20028;-78
2023/01/06 01:10:54;;;;;;;22.30;7.68;;;10.20;99.90;;;;;;5115038;28;20404;-77
2023/01/06 01:13:19;;;;;;;18.45;7.35;;;10.40;99.90;;;;;;5115098;28;20046;-77
2023/01/06 01:15:45;;;;;;;20.23;7.38;;;10.30;99.90;;;;;;5114728;28;20040;-78
2023/01/06 01:18:11;;;;;;;22.83;6.90;;;10.30;99.90;;;;;;5114149;28;20350;-77
2023/01/06 01:20:37;;;;;;;19.70;6.55;;;10.30;99.90;;;;;;5114026;28;20113;-76
2023/01/06 01:23:04;;;;;;;26.85;7.47;;;10.20;99.90;;;;;;5113941;28;20257;-78
2023/01/06 01:25:29;;;;;;;25.35;7.63;;;10.20;99.90;;;;;;5115692;28;20027;-76
2023/01/06 01:27:55;;;;;;;19.60;7.53;;;10.30;99.90;;;;;;5114719;28;20032;-79
2023/01/06 01:30:21;;;;;;;16.58;7.25;;;10.30;99.90;;;;;;5116350;28;20038;-76
2023/01/06 01:32:47;;;;;;;19.63;6.78;;;10.30;99.90;;;;;;5114272;28;20395;-78
2023/01/06 01:35:12;;;;;;;20.02;6.43;;;10.30;99.90;;;;;;5114531;28;20085;-76
2023/01/06 01:37:38;;;;;;;14.35;6.80;;;10.30;99.90;;;;;;5113303;28;20020;-77
2023/01/06 01:40:05;;;;;;;16.58;6.82;;;10.30;99.90;;;;;;5114086;28;20023;-78
2023/01/06 01:42:30;;;;;;;17.20;6.82;;;10.30;99.90;;;;;;5112743;28;20015;-79
2023/01/06 01:45:05;;;;;;;24.02;6.72;;;10.30;99.90;;;;;;5113343;28;20417;-77
2023/01/06 01:47:38;;;;;;;22.17;6.78;;;10.30;99.90;;;;;;5114010;28;20035;-77
2023/01/06 01:50:23;;;;;;;21.20;6.90;;;10.40;99.90;;;;;;5112796;28;20040;-77
2023/01/06 01:52:52;;;;;;;22.88;6.43;;;10.40;99.90;;;;;;5112683;28;20023;-77
2023/01/06 01:55:19;;;;;;;17.83;6.20;;;10.40;99.90;;;;;;5112966;28;20096;-78
2023/01/06 01:58:01;;;;;;;16.13;6.13;;;10.40;99.90;;;;;;5113102;27;20032;-79
2023/01/06 02:00:27;;;;;;;13.75;6.30;;;10.40;99.90;;;;;;5114070;27;20029;-77
2023/01/06 02:02:53;;;;;;;12.23;5.82;;;10.30;99.90;;;;;;5114524;28;20093;-76
2023/01/06 02:05:23;;;;;;;12.43;5.72;;;10.30;99.90;;;;;;5112558;28;20100;-75
2023/01/06 02:07:49;;;;;;;10.98;5.20;;;10.40;99.90;;;;;;5113848;28;20054;-76
2023/01/06 02:10:21;;;;;;;12.00;5.78;;;10.50;99.90;;;;;;5113712;28;20019;-78
2023/01/06 02:12:50;;;;;;;12.43;5.72;;;10.40;99.90;;;;;;5113717;28;20472;-77
2023/01/06 02:15:30;;;;;;;10.07;5.13;;;10.40;99.90;;;;;;5113983;28;20079;-78
2023/01/06 02:18:35;;;;;;;14.38;5.20;;;10.40;99.90;;;;;;5113789;28;20063;-79
2023/01/06 02:21:21;;;;;;;13.50;5.55;;;10.40;99.90;;;;;;5113740;28;20044;-78
2023/01/06 02:24:46;;;;;;;10.18;4.75;;;10.40;99.90;;;;;;5113497;28;20028;-78
2023/01/06 02:27:49;;;;;;;11.10;4.95;;;10.40;99.90;;;;;;5112657;28;20396;-76
2023/01/06 02:30:29;;;;;;;15.95;5.22;;;10.50;99.90;;;;;;5113305;28;20036;-77
2023/01/06 02:33:17;;;;;;;8.65;4.78;;;10.40;99.90;;;;;;5113386;28;20111;-78
2023/01/06 02:35:50;;;;;;;12.70;4.28;;;10.50;99.90;;;;;;5105609;28;20461;-78
2023/01/06 02:38:25;;;;;;;11.45;4.50;;;10.40;99.90;;;;;;5092113;28;20105;-78
2023/01/06 02:41:11;;;;;;;14.95;5.57;;;10.50;99.90;;;;;;5091891;28;20097;-78
2023/01/06 02:44:02;;;;;;;9.75;4.80;;;10.50;99.90;;;;;;5091539;28;20032;-75
2023/01/06 02:46:46;;;;;;;16.33;5.97;;;10.40;99.90;;;;;;5092651;28;20043;-79
2023/01/06 02:49:17;;;;;;;7.65;4.55;;;10.50;99.90;;;;;;5091753;28;20123;-77
2023/01/06 02:51:58;;;;;;;13.52;4.93;;;10.50;99.90;;;;;;5092438;28;22106;-78
2023/01/06 02:54:42;;;;;;;9.02;4.60;;;10.50;99.90;;;;;;5092290;28;20042;-77
2023/01/06 02:57:14;;;;;;;11.25;4.10;;;10.50;99.90;;;;;;5092591;28;20053;-77
2023/01/06 02:59:48;;;;;;;13.82;4.88;;;10.50;99.90;;;;;;5091304;28;20047;-77
2023/01/06 03:02:16;;;;;;;7.18;3.97;;;10.50;99.90;;;;;;5092635;28;20121;-78
2023/01/06 03:04:45;;;;;;;8.20;4.22;;;10.60;99.90;;;;;;5090990;28;20040;-76
2023/01/06 03:07:14;;;;;;;8.95;4.63;;;10.70;99.90;;;;;;5091899;28;20477;-78
2023/01/06 03:09:40;;;;;;;7.95;4.55;;;10.60;99.90;;;;;;5090749;28;20381;-76
2023/01/06 03:12:53;;;;;;;9.23;4.05;;;10.60;99.90;;;;;;5091521;28;20051;-79
2023/01/06 03:15:19;;;;;;;14.23;3.47;;;10.50;99.90;;;;;;5057359;28;20028;-77
2023/01/06 03:17:45;;;;;;;11.05;4.03;;;10.60;99.90;;;;;;5091271;28;20527;-78
2023/01/06 03:20:12;;;;;;;8.77;3.88;;;10.70;99.90;;;;;;5091812;28;20124;-77
2023/01/06 03:22:39;;;;;;;9.07;3.72;;;10.70;99.90;;;;;;5090947;28;20047;-77
2023/01/06 03:25:06;;;;;;;11.73;3.70;;;10.70;99.90;;;;;;5090419;28;20119;-76
2023/01/06 03:27:32;;;;;;;11.07;3.72;;;10.70;99.90;;;;;;5091879;28;20032;-77
2023/01/06 03:29:59;;;;;;;9.07;3.53;;;10.70;99.90;;;;;;5092008;28;20039;-77
2023/01/06 03:32:27;;;;;;;6.53;3.25;;;10.80;99.90;;;;;;5091411;28;20032;-77
2023/01/06 03:35:31;;;;;;;9.52;3.47;;;10.70;99.90;;;;;;5091509;28;20358;-77
2023/01/06 03:38:20;;;;;;;7.85;3.40;;;10.80;99.90;;;;;;5035967;28;20030;-78
2023/01/06 03:40:55;;;;;;;6.13;3.13;;;10.80;99.90;;;;;;5090317;28;20035;-78
2023/01/06 03:43:38;;;;;;;7.95;3.80;;;10.80;99.90;;;;;;5091202;28;20024;-78
2023/01/06 03:46:16;;;;;;;6.88;3.17;;;10.90;99.90;;;;;;5091357;28;20104;-77
2023/01/06 03:48:53;;;;;;;;;;;10.90;99.90;;;;;;5090828;28;20454;-77
2023/01/06 03:51:43;;;;;;;29.05;11.65;;;10.90;99.90;;;;;;5091830;28;19907;-78
2023/01/06 03:54:19;;;;;;;6.65;3.22;;;10.90;99.90;;;;;;5091294;28;20046;-76
2023/01/06 03:56:51;;;;;;;4.68;2.90;;;10.90;99.90;;;;;;5091443;28;20158;-77
2023/01/06 03:59:25;;;;;;;9.68;3.92;;;10.90;99.90;;;;;;5090356;28;20032;-77
2023/01/06 04:01:51;;;;;;;10.25;3.25;;;10.90;99.90;;;;;;5091019;28;20039;-77
2023/01/06 04:04:18;;;;;;;7.03;3.38;;;10.90;99.90;;;;;;5089776;28;20028;-77
2023/01/06 04:06:43;;;;;;;9.63;2.72;;;10.90;99.90;;;;;;5089950;28;20155;-77
2023/01/06 04:09:09;;;;;;;8.73;3.22;;;11.00;99.90;;;;;;5090158;28;20139;-76
2023/01/06 04:14:20;;;;;;;5.95;3.20;;;11.00;99.90;;;;;;5090945;28;20116;-77
2023/01/06 04:16:45;;;;;;;9.15;3.33;;;10.90;99.90;;;;;;5090939;28;20078;-77
2023/01/06 04:19:11;;;;;;;6.50;2.70;;;11.00;99.90;;;;;;5091010;28;20330;-78
2023/01/06 04:21:37;;;;;;;6.97;3.53;;;11.00;99.90;;;;;;5089690;28;20024;-77
2023/01/06 04:24:03;;;;;;;9.52;3.58;;;11.00;99.90;;;;;;5090374;28;20036;-77
2023/01/06 04:26:29;;;;;;;9.40;4.28;;;10.90;99.90;;;;;;5090859;28;20036;-78
2023/01/06 04:28:55;;;;;;;11.43;6.78;;;11.00;99.90;;;;;;5090718;28;20092;-77
2023/01/06 04:31:20;;;;;;;18.73;9.55;;;11.00;99.90;;;;;;5089519;28;20024;-77
2023/01/06 04:33:46;;;;;;;19.13;10.23;;;11.00;99.90;;;;;;5089791;28;20028;-77
2023/01/06 04:36:13;;;;;;;18.30;9.77;;;11.00;99.90;;;;;;5091338;28;20035;-77
2023/01/06 04:38:38;;;;;;;16.33;8.57;;;11.00;99.90;;;;;;5089605;28;20028;-77
2023/01/06 04:41:04;;;;;;;12.88;7.07;;;11.00;99.90;;;;;;5090604;28;20107;-77
2023/01/06 04:43:30;;;;;;;13.77;5.75;;;11.00;99.90;;;;;;5090743;28;20122;-77
2023/01/06 04:45:58;;;;;;;11.57;4.80;;;11.00;99.90;;;;;;5090553;28;20043;-78
2023/01/06 04:48:24;;;;;;;9.75;3.88;;;11.00;99.90;;;;;;5090777;28;20028;-77
2023/01/06 04:51:02;;;;;;;7.95;4.28;;;11.10;99.90;;;;;;5091173;28;20075;-77
2023/01/06 04:53:28;;;;;;;;;;;11.00;99.90;;;;;;5090956;28;20044;-77
2023/01/06 04:55:55;;;;;;;6.68;3.28;;;11.10;99.90;;;;;;5090563;28;20005;-78
2023/01/06 04:58:20;;;;;;;9.23;4.10;;;11.10;99.90;;;;;;5090073;28;20032;-77
2023/01/06 05:00:46;;;;;;;6.65;3.35;;;11.10;99.90;;;;;;5089302;28;20024;-77
2023/01/06 05:03:12;;;;;;;7.10;3.38;;;11.10;99.90;;;;;;5089846;28;20176;-77
2023/01/06 05:05:37;;;;;;;5.10;3.28;;;11.10;99.90;;;;;;5090215;28;20043;-77
2023/01/06 05:08:03;;;;;;;6.07;2.92;;;11.10;99.90;;;;;;5089012;28;20194;-76
2023/01/06 05:10:29;;;;;;;6.68;3.47;;;11.10;99.90;;;;;;5089167;28;20092;-78
2023/01/06 05:12:54;;;;;;;7.18;3.28;;;11.20;99.90;;;;;;5090652;28;20117;-77
2023/01/06 05:15:20;;;;;;;6.05;3.13;;;11.10;99.90;;;;;;5089823;28;20028;-77
2023/01/06 05:17:45;;;;;;;7.05;3.30;;;11.10;99.90;;;;;;5090763;28;20034;-78
2023/01/06 05:20:11;;;;;;;7.95;3.05;;;11.20;99.90;;;;;;5090601;28;20032;-77
2023/01/06 05:22:37;;;;;;;8.20;2.70;;;11.10;99.90;;;;;;5090389;28;20386;-78
2023/01/06 05:25:03;;;;;;;6.45;2.78;;;11.10;99.90;;;;;;5090347;28;20028;-79
2023/01/06 05:27:29;;;;;;;8.15;2.60;;;11.10;99.90;;;;;;5089251;28;20012;-77
2023/01/06 05:29:54;;;;;;;4.45;2.70;;;11.20;99.90;;;;;;5091163;28;20430;-78
2023/01/06 05:32:20;;;;;;;11.10;3.38;;;11.20;99.90;;;;;;5093130;28;20517;-77
2023/01/06 05:34:46;;;;;;;5.60;2.78;;;11.20;99.90;;;;;;5093942;28;20028;-77
2023/01/06 05:37:11;;;;;;;5.15;2.47;;;11.30;99.90;;;;;;5092762;28;20051;-77
2023/01/06 05:39:37;;;;;;;3.35;1.90;;;11.30;99.90;;;;;;5092678;28;20024;-77
2023/01/06 05:42:03;;;;;;;2.65;1.85;;;11.20;99.90;;;;;;5093553;28;20411;-77
2023/01/06 05:44:28;;;;;;;7.18;2.22;;;11.20;99.90;;;;;;5092436;28;20469;-79
2023/01/06 05:46:54;;;;;;;5.07;1.98;;;11.30;99.90;;;;;;5092455;28;20530;-79
2023/01/06 05:49:19;;;;;;;6.00;2.00;;;11.30;99.90;;;;;;5093537;28;20027;-78
2023/01/06 05:51:45;;;;;;;2.58;1.33;;;11.30;99.90;;;;;;5092356;28;20024;-78
2023/01/06 05:54:12;;;;;;;8.23;1.85;;;11.30;99.90;;;;;;5093007;28;20057;-77
2023/01/06 05:56:38;;;;;;;6.90;1.57;;;11.30;99.90;;;;;;5093035;28;20082;-76
2023/01/06 05:59:04;;;;;;;3.22;1.10;;;11.40;99.90;;;;;;5095370;28;20048;-77
2023/01/06 06:01:31;;;;;;;2.90;1.15;;;11.30;99.90;;;;;;5094393;28;20024;-77
2023/01/06 06:03:57;;;;;;;4.00;1.10;;;11.30;99.90;;;;;;5093594;28;20028;-77
2023/01/06 06:06:25;;;;;;;3.67;1.08;;;11.30;99.90;;;;;;5092951;28;20054;-77
2023/01/06 06:08:50;;;;;;;3.95;1.63;;;11.30;99.90;;;;;;5093689;28;20040;-76
2023/01/06 06:11:18;;;;;;;2.88;1.00;;;11.30;99.90;;;;;;5093821;28;20032;-77
2023/01/06 06:13:52;;;;;;;5.65;0.90;;;11.30;99.90;;;;;;5092326;28;20052;-77
2023/01/06 06:16:21;;;;;;;1.85;0.80;;;11.40;99.90;;;;;;5092661;28;20039;-75
2023/01/06 06:18:52;;;;;;;1.90;0.80;;;11.30;99.90;;;;;;5093710;28;20096;-76
2023/01/06 06:21:20;;;;;;;3.35;0.82;;;11.40;99.90;;;;;;5094207;28;20039;-78
2023/01/06 06:23:46;;;;;;;4.85;1.00;;;11.40;99.90;;;;;;5092379;28;20048;-78
2023/01/06 06:26:12;;;;;;;2.47;0.90;;;11.40;99.90;;;;;;5093144;28;20155;-77
2023/01/06 06:28:39;;;;;;;2.78;0.90;;;11.40;99.90;;;;;;5091924;28;20479;-78
2023/01/06 06:31:06;;;;;;;1.33;0.90;;;11.40;99.90;;;;;;5092858;28;20028;-76
2023/01/06 06:33:33;;;;;;;3.80;0.60;;;11.50;99.90;;;;;;5092083;28;20047;-77
2023/01/06 06:35:59;;;;;;;1.52;0.60;;;11.40;99.90;;;;;;5092142;28;20513;-77
2023/01/06 06:38:26;;;;;;;4.30;0.82;;;11.40;99.90;;;;;;5091774;28;20077;-77
2023/01/06 06:40:51;;;;;;;1.13;0.63;;;11.50;99.90;;;;;;5091583;28;20028;-78
2023/01/06 06:43:17;;;;;;;2.65;1.00;;;11.40;99.90;;;;;;5091175;28;20032;-77
2023/01/06 06:45:44;;;;;;;10.48;0.90;;;11.40;99.90;;;;;;5092005;28;20028;-77
2023/01/06 06:48:10;;;;;;;2.95;0.85;;;11.40;99.90;;;;;;5092103;28;20114;-78
2023/01/06 06:50:35;;;;;;;2.40;0.60;;;11.50;99.90;;;;;;5091477;28;20078;-76
2023/01/06 06:53:01;;;;;;;4.10;0.70;;;11.40;99.90;;;;;;5092631;28;20558;-77
2023/01/06 06:55:27;;;;;;;1.83;0.93;;;11.40;99.90;;;;;;5092324;28;20036;-77
2023/01/06 06:57:52;;;;;;;3.53;0.77;;;11.50;99.90;;;;;;5091197;28;20036;-77
2023/01/06 07:00:18;;;;;;;2.40;0.80;;;11.50;99.90;;;;;;5093200;28;20453;-77
2023/01/06 07:02:48;;;;;;;2.28;0.80;;;11.50;99.90;;;;;;5092735;28;20029;-78
2023/01/06 07:05:14;;;;;;;3.67;0.85;;;11.50;99.90;;;;;;5092256;28;20043;-78
2023/01/06 07:07:40;;;;;;;5.53;0.73;;;11.50;99.90;;;;;;5092182;28;20122;-77
2023/01/06 07:10:07;;;;;;;2.15;0.80;;;11.50;99.90;;;;;;5091097;28;20028;-77
2023/01/06 07:12:32;;;;;;;4.80;1.00;;;11.50;99.90;;;;;;5091941;28;20028;-76
2023/01/06 07:14:58;;;;;;;2.40;0.75;;;11.50;99.90;;;;;;5092590;28;20024;-77
2023/01/06 07:17:27;;;;;;;3.63;1.20;;;11.50;99.90;;;;;;5090487;28;20055;-77
2023/01/06 07:19:53;;;;;;;1.50;0.90;;;11.50;99.90;;;;;;5091108;28;20125;-77
2023/01/06 07:22:19;;;;;;;7.30;1.80;;;11.50;99.90;;;;;;5092198;28;20024;-76
2023/01/06 07:24:44;;;;;;;2.70;0.88;;;11.50;99.90;;;;;;5091606;28;20058;-76
2023/01/06 07:27:10;;;;;;;5.55;0.80;;;11.50;99.90;;;;;;5091276;28;20024;-76
2023/01/06 07:29:36;;;;;;;4.18;1.27;;;11.50;99.90;;;;;;5092249;28;20078;-78
2023/01/06 07:32:04;;;;;;;3.28;0.70;;;11.50;99.90;;;;;;5091572;28;20085;-76
2023/01/06 07:34:30;;;;;;;;;;;11.50;99.90;;;;;;5090740;28;20189;-76
2023/01/06 07:36:56;;;;;;;3.95;0.93;;;11.50;99.90;;;;;;5090561;28;19927;-77
2023/01/06 07:39:22;;;;;;;3.90;0.88;;;11.50;99.90;;;;;;5090905;28;20032;-77
2023/01/06 07:41:47;;;;;;;7.22;0.90;;;11.50;99.90;;;;;;5091752;28;20351;-77
2023/01/06 07:44:13;;;;;;;2.95;0.75;;;11.50;99.90;;;;;;5089797;28;20450;-76
2023/01/06 07:46:39;;;;;;;3.90;1.15;;;11.50;99.90;;;;;;5091531;28;20466;-78
2023/01/06 07:49:04;;;;;;;6.90;1.65;;;11.50;99.90;;;;;;5090596;28;20578;-78
2023/01/06 07:51:30;;;;;;;1.92;0.80;;;11.50;99.90;;;;;;5091507;28;20024;-77
2023/01/06 07:53:55;;;;;;;1.98;0.90;;;11.50;99.90;;;;;;5091616;28;20031;-78
2023/01/06 07:56:22;;;;;;;4.40;1.10;;;11.60;99.90;;;;;;5090631;28;20028;-77
2023/01/06 07:58:48;;;;;;;3.80;1.10;;;11.50;99.90;;;;;;5091095;28;20109;-77
2023/01/06 08:01:14;;;;;;;3.35;0.85;;;11.60;99.90;;;;;;5091539;28;20024;-75
2023/01/06 08:03:40;;;;;;;1.67;0.70;;;11.60;99.90;;;;;;5090981;28;20454;-79
2023/01/06 08:06:07;;;;;;;4.18;0.95;;;11.60;99.90;;;;;;5091293;28;20353;-75
2023/01/06 08:08:36;;;;;;;3.03;0.93;;;11.60;99.90;;;;;;5089485;28;20028;-77
2023/01/06 08:11:01;;;;;;;5.10;1.80;;;11.60;99.90;;;;;;5090831;28;20024;-77
2023/01/06 08:13:27;;;;;;;5.88;0.88;;;11.60;99.90;;;;;;5091005;28;20386;-76
2023/01/06 08:15:53;;;;;;;1.90;0.70;;;11.60;99.90;;;;;;5091355;28;20078;-78
2023/01/06 08:18:19;;;;;;;4.10;1.20;;;11.60;99.90;;;;;;5091437;28;20446;-77
2023/01/06 08:20:44;;;;;;;5.15;1.00;;;11.60;99.90;;;;;;5089607;28;20024;-77
2023/01/06 08:23:10;;;;;;;2.85;1.08;;;11.60;99.90;;;;;;5090983;28;20024;-77
2023/01/06 08:25:36;;;;;;;4.97;1.10;;;11.70;99.90;;;;;;5090562;28;20032;-77
2023/01/06 08:28:02;;;;;;;4.60;0.88;;;11.60;99.90;;;;;;5090630;28;20081;-78
2023/01/06 08:30:27;;;;;;;2.55;0.85;;;11.70;99.90;;;;;;5091162;28;20400;-77
2023/01/06 08:32:57;;;;;;;3.92;1.48;;;11.70;99.90;;;;;;5091176;28;20031;-76
2023/01/06 08:35:24;;;;;;;3.00;1.00;;;11.70;99.90;;;;;;5089570;28;20027;-76
2023/01/06 08:37:50;;;;;;;3.63;1.42;;;11.70;99.90;;;;;;5090580;28;20042;-76
2023/01/06 08:40:15;;;;;;;1.83;0.70;;;11.70;99.90;;;;;;5089318;28;20024;-76
2023/01/06 08:42:41;;;;;;;4.95;1.23;;;11.60;99.90;;;;;;5089372;28;20079;-78
2023/01/06 08:45:07;;;;;;;4.85;0.80;;;11.70;99.90;;;;;;5089735;28;20021;-77
2023/01/06 08:47:34;;;;;;;3.10;1.30;;;11.70;99.90;;;;;;5090789;28;20043;-76
2023/01/06 08:50:00;;;;;;;3.35;0.90;;;11.80;99.90;;;;;;5090326;28;20051;-74
2023/01/06 08:52:26;;;;;;;1.65;0.73;;;11.80;99.90;;;;;;5090489;28;20024;-76
2023/01/06 08:54:51;;;;;;;7.63;1.27;;;11.80;99.90;;;;;;5089516;28;20032;-78
2023/01/06 08:57:17;;;;;;;3.92;1.00;;;11.80;99.90;;;;;;5090902;28;20020;-75
2023/01/06 08:59:43;;;;;;;2.03;1.23;;;11.80;99.90;;;;;;5090397;28;20539;-76
2023/01/06 09:02:12;;;;;;;4.22;1.50;;;11.80;99.90;;;;;;5090487;28;20366;-77
2023/01/06 09:04:38;;;;;;;2.80;1.20;;;11.90;99.90;;;;;;5089366;28;20111;-77
2023/01/06 09:07:04;;;;;;;4.45;1.90;;;11.80;99.90;;;;;;5093671;28;20095;-78
2023/01/06 09:09:29;;;;;;;4.35;1.55;;;11.90;99.90;;;;;;5093196;28;20039;-77
2023/01/06 09:11:55;;;;;;;3.55;1.65;;;11.90;99.90;;;;;;5094773;28;20057;-78
2023/01/06 09:14:21;;;;;;;1.98;1.10;;;11.90;99.90;;;;;;5094354;28;20028;-76
2023/01/06 09:16:47;;;;;;;4.03;1.45;;;11.90;99.90;;;;;;5092773;28;20123;-77
2023/01/06 09:19:15;;;;;;;8.20;1.35;;;11.90;99.90;;;;;;5094835;28;20111;-77
2023/01/06 09:21:41;;;;;;;2.50;1.00;;;11.90;99.90;;;;;;5093089;28;20028;-78
2023/01/06 09:24:12;;;;;;;4.72;1.40;;;11.90;99.90;;;;;;5095057;28;20050;-78
2023/01/06 09:26:38;;;;;;;1.45;0.85;;;12.00;99.90;;;;;;5093985;28;20484;-75
2023/01/06 09:29:04;;;;;;;4.05;1.13;;;11.90;99.90;;;;;;5093723;28;20039;-75
2023/01/06 09:31:29;;;;;;;3.90;1.45;;;11.90;99.90;;;;;;5092713;28;20024;-76
2023/01/06 09:33:55;;;;;;;3.50;1.20;;;11.90;99.90;;;;;;5092474;28;20056;-77
2023/01/06 09:36:21;;;;;;;4.95;1.25;;;11.90;99.90;;;;;;5093335;28;20111;-77
2023/01/06 09:38:47;;;;;;;4.60;1.30;;;11.90;99.90;;;;;;5092600;28;20028;-76
2023/01/06 09:41:41;;;;;;;1.83;0.98;;;11.90;99.90;;;;;;5093499;28;20032;-76
2023/01/06 09:44:21;;;;;;;3.40;1.08;;;11.90;99.90;;;;;;5092676;28;20036;-76
2023/01/06 09:46:49;;;;;;;3.40;0.98;;;11.90;99.90;;;;;;5093355;28;20040;-78
2023/01/06 09:49:47;;;;;;;5.25;1.20;;;11.90;99.90;;;;;;5093558;28;20024;-77
2023/01/06 09:52:31;;;;;;;4.93;0.88;;;11.90;99.90;;;;;;5093583;28;20036;-74
2023/01/06 09:55:07;;;;;;;1.88;1.05;;;11.90;99.90;;;;;;5093320;28;20039;-75
2023/01/06 09:57:39;;;;;;;5.13;0.80;;;11.90;99.90;;;;;;5093653;28;20118;-75
2023/01/06 10:00:46;;;;;;;4.13;1.75;;;11.90;99.90;;;;;;5093715;28;20031;-77
2023/01/06 10:03:24;;;;;;;1.52;1.10;;;11.90;99.90;;;;;;5091479;28;20181;-78
2023/01/06 10:06:00;;;;;;;;;;;12.00;99.90;;;;;;5093575;28;20028;-76
2023/01/06 10:08:37;;;;;;;3.05;0.93;;;11.90;99.90;;;;;;5093458;28;19912;-75
2023/01/06 10:11:28;;;;;;;1.27;0.60;;;11.80;99.90;;;;;;5093224;28;20068;-76
2023/01/06 10:14:29;;;;;;;4.55;0.70;;;11.80;99.90;;;;;;5094237;28;20052;-77
2023/01/06 10:17:04;;;;;;;2.45;0.90;;;11.80;99.90;;;;;;5092825;28;20036;-76
2023/01/06 10:20:04;;;;;;;6.07;1.27;;;11.80;99.90;;;;;;5092720;28;20492;-77
2023/01/06 10:22:42;;;;;;;2.58;0.90;;;11.80;99.90;;;;;;5093246;28;20085;-76
2023/01/06 10:25:22;;;;;;;2.90;1.13;;;11.80;99.90;;;;;;5093285;28;20033;-76
2023/01/06 10:28:22;;;;;;;4.40;0.90;;;11.90;99.90;;;;;;5093089;28;20038;-77
2023/01/06 10:30:51;;;;;;;1.80;0.80;;;11.90;99.90;;;;;;5093257;28;20489;-77
2023/01/06 10:33:33;;;;;;;1.75;0.85;;;12.00;99.90;;;;;;5093284;28;20111;-77
2023/01/06 10:35:59;;;;;;;3.28;1.00;;;11.90;99.90;;;;;;5093188;28;20051;-77
2023/01/06 10:38:39;;;;;;;4.60;0.98;;;11.90;99.90;;;;;;5091765;28;20358;-76
2023/01/06 10:41:29;;;;;;;5.72;1.08;;;11.90;99.90;;;;;;5092511;28;20466;-77
2023/01/06 10:43:56;;;;;;;3.13;1.00;;;11.80;99.90;;;;;;5091961;28;20111;-76
2023/01/06 10:46:23;;;;;;;4.53;0.80;;;11.80;99.90;;;;;;5092242;28;20028;-77
2023/01/06 10:48:50;;;;;;;1.20;1.00;;;11.80;99.90;;;;;;5092303;28;20107;-78
2023/01/06 10:51:33;;;;;;;2.75;1.05;;;11.90;99.90;;;;;;5093294;28;20024;-78
2023/01/06 10:54:04;;;;;;;1.90;1.00;;;11.90;99.90;;;;;;5093230;28;20052;-76
2023/01/06 10:56:32;;;;;;;3.33;0.98;;;11.90;99.90;;;;;;5091468;28;20081;-77
2023/01/06 10:59:10;;;;;;;2.47;0.77;;;12.00;99.90;;;;;;5091254;28;20502;-77
2023/01/06 11:01:48;;;;;;;2.15;1.05;;;11.90;99.90;;;;;;5090868;28;20539;-77
2023/01/06 11:04:14;;;;;;;1.58;1.00;;;11.90;99.90;;;;;;5092477;28;20020;-77
2023/01/06 11:06:47;;;;;;;0.85;0.80;;;11.80;99.90;;;;;;5097080;28;20362;-78
2023/01/06 11:09:44;;;;;;;0.80;0.80;;;11.80;99.90;;;;;;5091388;28;20031;-76
2023/01/06 11:12:19;;;;;;;3.95;1.45;;;11.80;99.90;;;;;;5092313;28;20105;-77
2023/01/06 11:15:00;;;;;;;3.17;1.25;;;11.80;99.90;;;;;;5092365;28;20116;-77
2023/01/06 11:17:27;;;;;;;2.78;1.02;;;11.70;99.90;;;;;;5092000;28;20382;-76
2023/01/06 11:20:37;;;;;;;1.38;1.15;;;11.80;99.90;;;;;;5090738;28;20373;-74
2023/01/06 11:23:19;;;;;;;3.10;1.08;;;11.80;99.90;;;;;;5091806;28;20036;-77
2023/01/06 11:26:19;;;;;;;3.67;1.05;;;11.80;99.90;;;;;;5091808;28;20067;-76
2023/01/06 11:28:52;;;;;;;2.63;0.90;;;11.90;99.90;;;;;;5090046;28;20107;-77
2023/01/06 11:31:25;;;;;;;2.90;1.30;;;11.80;99.90;;;;;;5091053;28;20184;-77
2023/01/06 11:33:58;;;;;;;4.70;1.90;;;11.90;99.90;;;;;;5091738;28;20115;-77
2023/01/06 11:36:30;;;;;;;3.13;1.48;;;11.90;99.90;;;;;;5091859;28;20052;-77
2023/01/06 11:39:02;;;;;;;2.65;1.48;;;12.00;99.90;;;;;;5090187;28;20051;-77
2023/01/06 11:41:39;;;;;;;2.70;1.30;;;12.10;99.90;;;;;;5090264;28;20032;-76
2023/01/06 11:44:40;;;;;;;2.85;1.50;;;12.10;99.90;;;;;;5090176;28;20369;-77
2023/01/06 11:47:21;;;;;;;2.97;1.00;;;12.20;99.90;;;;;;5048155;28;20056;-78
2023/01/06 11:49:51;;;;;;;2.17;1.17;;;12.30;99.90;;;;;;5090644;28;20028;-80
2023/01/06 11:52:16;;;;;;;5.43;1.05;;;12.30;99.90;;;;;;5091464;28;20024;-76
2023/01/06 11:54:43;;;;;;;1.35;1.00;;;12.20;99.90;;;;;;5090916;28;20400;-76
2023/01/06 11:57:17;;;;;;;1.70;0.98;;;12.20;99.90;;;;;;5091835;28;20024;-77
2023/01/06 11:59:57;;;;;;;1.55;1.08;;;12.30;99.90;;;;;;5091140;28;20040;-76
2023/01/06 12:02:31;;;;;;;6.50;2.20;;;12.20;99.90;;;;;;5091707;28;20024;-78
2023/01/06 12:05:00;;;;;;;1.90;1.27;;;12.30;99.90;;;;;;5090738;28;20107;-79
2023/01/06 12:07:26;;;;;;;5.03;1.23;;;12.30;99.90;;;;;;5090641;28;20024;-77
2023/01/06 12:09:54;;;;;;;2.60;1.00;;;12.30;99.90;;;;;;5090892;28;20311;-77
2023/01/06 12:12:22;;;;;;;;;;;12.30;99.90;;;;;;5092420;28;20012;-76
2023/01/06 12:14:47;;;;;;;3.63;0.95;;;12.20;99.90;;;;;;5090904;28;20388;-77
2023/01/06 12:17:22;;;;;;;1.80;1.10;;;12.30;99.90;;;;;;5090464;28;20044;-77
2023/01/06 12:19:51;;;;;;;1.50;1.17;;;12.30;99.90;;;;;;5089701;28;20488;-77
2023/01/06 12:22:41;;;;;;;1.80;0.93;;;12.40;99.90;;;;;;5090903;28;20457;-77
2023/01/06 12:25:30;;;;;;;4.03;1.55;;;12.30;99.90;;;;;;5079431;28;20036;-79
2023/01/06 12:28:11;;;;;;;1.77;1.40;;;12.30;99.90;;;;;;5090267;28;20050;-78
2023/01/06 12:30:57;;;;;;;1.60;1.10;;;12.30;99.90;;;;;;5090888;28;20022;-78
2023/01/06 12:33:34;;;;;;;2.20;1.23;;;12.40;99.90;;;;;;5089967;28;20020;-79
2023/01/06 12:36:05;;;;;;;2.80;1.38;;;12.40;99.90;;;;;;5089292;28;20036;-76
2023/01/06 12:38:52;;;;;;;1.38;1.10;;;12.40;99.90;;;;;;5090877;28;20029;-77
2023/01/06 12:41:37;;;;;;;;;;;12.30;99.90;;;;;;5090818;28;20115;-77
2023/01/06 12:44:21;;;;;;;3.92;1.60;;;12.40;99.90;;;;;;5106452;28;20042;-78
2023/01/06 12:47:04;;;;;;;3.67;1.30;;;12.50;99.90;;;;;;5090366;28;20127;-77
2023/01/06 12:49:49;;;;;;;3.40;1.20;;;12.50;99.90;;;;;;5090488;28;20033;-78
2023/01/06 12:52:22;;;;;;;3.10;1.60;;;12.40;99.90;;;;;;5089446;28;20028;-78
2023/01/06 12:54:54;;;;;;;1.88;1.27;;;12.50;99.90;;;;;;5090600;28;20089;-78
2023/01/06 12:57:37;;;;;;;3.22;1.25;;;12.50;99.90;;;;;;5091239;28;20024;-77
2023/01/06 13:00:30;;;;;;;3.03;1.52;;;12.40;99.90;;;;;;5090087;28;20044;-78
2023/01/06 13:03:12;;;;;;;4.88;1.27;;;12.30;99.90;;;;;;5090775;28;20047;-79
2023/01/06 13:05:41;;;;;;;2.30;1.30;;;12.30;99.90;;;;;;5088947;28;20107;-79
2023/01/06 13:08:18;;;;;;;3.45;1.50;;;12.20;99.90;;;;;;5090594;28;20032;-77
2023/01/06 13:10:45;;;;;;;3.28;1.52;;;12.10;99.90;;;;;;5089888;28;20093;-78
2023/01/06 13:13:25;;;;;;;2.13;1.63;;;12.20;99.90;;;;;;5090560;28;20024;-78